sensor_id;sensor_type;location;lat;lon;timestamp;pressure;altitude;pressure_sealevel;temperature;humidity
13604;BME280;24578;48.264;11.436;2023-04-05T00:01:43;96613.13;;;-3.62;100.00
13604;BME280;24578;48.264;11.436;2023-04-05T00:05:10;96610.63;;;-3.65;100.00
13604;BME280;24578;48.264;11.436;2023-04-05T00:08:32;96606.38;;;-3.64;100.00
13604;BME280;24578;48.264;11.436;2023-04-05T00:11:54;96599.63;;;-3.65;100.00
13604;BME280;24578;48.264;11.436;2023-04-05T00:15:17;96587.91;;;-3.70;100.00
13604;BME280;24578;48.264;11.436;2023-04-05T00:18:39;96600.53;;;-3.70;100.00
13604;BME280;24578;48.264;11.436;2023-04-05T00:22:06;96603.94;;;-3.72;100.00
13604;BME280;24578;48.264;11.436;2023-04-05T00:25:31;96601.44;;;-3.77;100.00
13604;BME280;24578;48.264;11.436;2023-04-05T00:28:52;96583.75;;;-3.80;100.00
13604;BME280;24578;48.264;11.436;2023-04-05T00:32:14;96586.28;;;-3.80;100.00
13604;BME280;24578;48.264;11.436;2023-04-05T00:35:36;96591.41;;;-3.83;100.00
13604;BME280;24578;48.264;11.436;2023-04-05T00:38:58;96589.75;;;-3.87;100.00
13604;BME280;24578;48.264;11.436;2023-04-05T00:42:20;96585.56;;;-3.90;100.00
13604;BME280;24578;48.264;11.436;2023-04-05T00:45:41;96581.31;;;-3.88;100.00
13604;BME280;24578;48.264;11.436;2023-04-05T00:49:03;96573.78;;;-3.91;100.00
13604;BME280;24578;48.264;11.436;2023-04-05T00:52:26;96584.75;;;-3.92;100.00
13604;BME280;24578;48.264;11.436;2023-04-05T00:55:49;96573.84;;;-4.00;100.00
13604;BME280;24578;48.264;11.436;2023-04-05T00:59:12;96571.25;;;-3.95;100.00
13604;BME280;24578;48.264;11.436;2023-04-05T01:02:44;96567.94;;;-4.01;100.00
13604;BME280;24578;48.264;11.436;2023-04-05T01:06:35;96565.44;;;-4.04;100.00
13604;BME280;24578;48.264;11.436;2023-04-05T01:09:59;96553.63;;;-4.02;100.00
13604;BME280;24578;48.264;11.436;2023-04-05T01:13:23;96553.59;;;-4.00;100.00
13604;BME280;24578;48.264;11.436;2023-04-05T01:16:45;96561.19;;;-4.00;100.00
13604;BME280;24578;48.264;11.436;2023-04-05T01:20:10;96557.00;;;-4.04;100.00
13604;BME280;24578;48.264;11.436;2023-04-05T01:31:50;96540.97;;;-3.99;100.00
13604;BME280;24578;48.264;11.436;2023-04-05T01:35:28;96551.03;;;-3.94;100.00
13604;BME280;24578;48.264;11.436;2023-04-05T01:38:54;96538.38;;;-3.94;100.00
13604;BME280;24578;48.264;11.436;2023-04-05T01:42:23;96535.88;;;-3.97;100.00
13604;BME280;24578;48.264;11.436;2023-04-05T01:45:47;96530.72;;;-3.86;100.00
13604;BME280;24578;48.264;11.436;2023-04-05T01:49:09;96533.16;;;-3.80;100.00
13604;BME280;24578;48.264;11.436;2023-04-05T01:52:31;96518.84;;;-3.79;100.00
13604;BME280;24578;48.264;11.436;2023-04-05T01:55:53;96519.72;;;-3.84;100.00
13604;BME280;24578;48.264;11.436;2023-04-05T01:59:14;96512.88;;;-3.77;100.00
13604;BME280;24578;48.264;11.436;2023-04-05T02:02:36;96504.41;;;-3.73;100.00
13604;BME280;24578;48.264;11.436;2023-04-05T02:05:58;96518.72;;;-3.69;100.00
13604;BME280;24578;48.264;11.436;2023-04-05T02:09:21;96519.50;;;-3.65;100.00
13604;BME280;24578;48.264;11.436;2023-04-05T02:12:43;96513.56;;;-3.62;100.00
13604;BME280;24578;48.264;11.436;2023-04-05T02:16:05;96511.88;;;-3.60;100.00
13604;BME280;24578;48.264;11.436;2023-04-05T02:19:26;96501.75;;;-3.60;100.00
13604;BME280;24578;48.264;11.436;2023-04-05T02:22:52;96512.66;;;-3.55;100.00
13604;BME280;24578;48.264;11.436;2023-04-05T02:26:14;96522.72;;;-3.50;100.00
13604;BME280;24578;48.264;11.436;2023-04-05T02:29:36;96514.22;;;-3.45;100.00
13604;BME280;24578;48.264;11.436;2023-04-05T02:32:58;96515.84;;;-3.41;100.00
13604;BME280;24578;48.264;11.436;2023-04-05T02:36:20;96502.34;;;-3.41;100.00
13604;BME280;24578;48.264;11.436;2023-04-05T02:39:42;96501.59;;;-3.48;100.00
13604;BME280;24578;48.264;11.436;2023-04-05T02:43:04;96498.22;;;-3.48;100.00
13604;BME280;24578;48.264;11.436;2023-04-05T02:46:26;96492.31;;;-3.49;100.00
13604;BME280;24578;48.264;11.436;2023-04-05T02:49:48;96505.00;;;-3.50;100.00
13604;BME280;24578;48.264;11.436;2023-04-05T02:53:10;96502.44;;;-3.49;100.00
13604;BME280;24578;48.264;11.436;2023-04-05T02:56:31;96500.78;;;-3.52;100.00
13604;BME280;24578;48.264;11.436;2023-04-05T02:59:53;96494.06;;;-3.53;100.00
13604;BME280;24578;48.264;11.436;2023-04-05T03:03:16;96490.69;;;-3.55;100.00
13604;BME280;24578;48.264;11.436;2023-04-05T03:06:38;96503.34;;;-3.55;100.00
13604;BME280;24578;48.264;11.436;2023-04-05T03:10:09;96484.00;;;-3.57;100.00
13604;BME280;24578;48.264;11.436;2023-04-05T03:13:32;96488.16;;;-3.55;100.00
13604;BME280;24578;48.264;11.436;2023-04-05T03:16:54;96473.88;;;-3.57;100.00
13604;BME280;24578;48.264;11.436;2023-04-05T03:20:15;96481.44;;;-3.56;100.00
13604;BME280;24578;48.264;11.436;2023-04-05T03:23:37;96485.69;;;-3.56;100.00
13604;BME280;24578;48.264;11.436;2023-04-05T03:27:02;96484.00;;;-3.57;100.00
13604;BME280;24578;48.264;11.436;2023-04-05T03:30:26;96472.16;;;-3.55;100.00
13604;BME280;24578;48.264;11.436;2023-04-05T03:33:48;96476.44;;;-3.59;100.00
13604;BME280;24578;48.264;11.436;2023-04-05T03:37:10;96478.16;;;-3.61;100.00
13604;BME280;24578;48.264;11.436;2023-04-05T03:40:32;96486.56;;;-3.60;100.00
13604;BME280;24578;48.264;11.436;2023-04-05T03:43:54;96482.38;;;-3.63;100.00
13604;BME280;24578;48.264;11.436;2023-04-05T03:47:15;96486.66;;;-3.67;100.00
13604;BME280;24578;48.264;11.436;2023-04-05T03:50:37;96474.84;;;-3.69;100.00
13604;BME280;24578;48.264;11.436;2023-04-05T03:53:59;96479.13;;;-3.73;100.00
13604;BME280;24578;48.264;11.436;2023-04-05T03:57:21;96477.44;;;-3.74;100.00
13604;BME280;24578;48.264;11.436;2023-04-05T04:00:43;96482.56;;;-3.78;100.00
13604;BME280;24578;48.264;11.436;2023-04-05T04:04:05;96481.75;;;-3.82;100.00
13604;BME280;24578;48.264;11.436;2023-04-05T04:07:26;96464.94;;;-3.88;100.00
13604;BME280;24578;48.264;11.436;2023-04-05T04:10:49;96469.19;;;-3.91;100.00
13604;BME280;24578;48.264;11.436;2023-04-05T04:14:10;96469.25;;;-3.96;100.00
13604;BME280;24578;48.264;11.436;2023-04-05T04:17:35;96474.38;;;-4.02;100.00
13604;BME280;24578;48.264;11.436;2023-04-05T04:20:57;96482.03;;;-4.08;100.00
13604;BME280;24578;48.264;11.436;2023-04-05T04:24:19;96482.09;;;-4.13;100.00
13604;BME280;24578;48.264;11.436;2023-04-05T04:27:42;96476.22;;;-4.15;100.00
13604;BME280;24578;48.264;11.436;2023-04-05T04:31:04;96473.72;;;-4.20;100.00
13604;BME280;24578;48.264;11.436;2023-04-05T04:34:25;96481.31;;;-4.21;100.00
13604;BME280;24578;48.264;11.436;2023-04-05T04:37:56;96461.13;;;-4.24;100.00
13604;BME280;24578;48.264;11.436;2023-04-05T04:41:20;96480.50;;;-4.22;100.00
13604;BME280;24578;48.264;11.436;2023-04-05T04:44:43;96470.38;;;-4.22;100.00
13604;BME280;24578;48.264;11.436;2023-04-05T04:48:05;96466.97;;;-4.19;100.00
13604;BME280;24578;48.264;11.436;2023-04-05T04:51:27;96479.63;;;-4.19;100.00
13604;BME280;24578;48.264;11.436;2023-04-05T04:54:48;96472.84;;;-4.17;100.00
13604;BME280;24578;48.264;11.436;2023-04-05T04:58:12;96473.69;;;-4.15;100.00
13604;BME280;24578;48.264;11.436;2023-04-05T05:01:34;96475.31;;;-4.11;100.00
13604;BME280;24578;48.264;11.436;2023-04-05T05:04:55;96479.50;;;-4.05;100.00
13604;BME280;24578;48.264;11.436;2023-04-05T05:08:17;96476.06;;;-4.03;100.00
13604;BME280;24578;48.264;11.436;2023-04-05T05:11:39;96471.78;;;-3.96;100.00
13604;BME280;24578;48.264;11.436;2023-04-05T05:15:01;96472.56;;;-3.89;100.00
13604;BME280;24578;48.264;11.436;2023-04-05T05:18:22;96474.13;;;-3.79;100.00
13604;BME280;24578;48.264;11.436;2023-04-05T05:21:44;96474.88;;;-3.72;100.00
13604;BME280;24578;48.264;11.436;2023-04-05T05:25:08;96467.91;;;-3.55;100.00
13604;BME280;24578;48.264;11.436;2023-04-05T05:28:30;96471.19;;;-3.45;100.00
13604;BME280;24578;48.264;11.436;2023-04-05T05:31:52;96471.75;;;-3.26;100.00
13604;BME280;24578;48.264;11.436;2023-04-05T05:35:14;96484.00;;;-2.95;100.00
13604;BME280;24578;48.264;11.436;2023-04-05T05:38:35;96479.34;;;-2.65;100.00
13604;BME280;24578;48.264;11.436;2023-04-05T05:41:57;96493.78;;;-2.20;100.00
13604;BME280;24578;48.264;11.436;2023-04-05T05:45:19;96485.75;;;-1.51;100.00
13604;BME280;24578;48.264;11.436;2023-04-05T05:48:41;96480.91;;;0.81;100.00
13604;BME280;24578;48.264;11.436;2023-04-05T05:52:03;96477.38;;;3.35;100.00
13604;BME280;24578;48.264;11.436;2023-04-05T05:55:25;96469.72;;;5.32;100.00
13604;BME280;24578;48.264;11.436;2023-04-05T05:58:47;96462.75;;;6.74;77.66
13604;BME280;24578;48.264;11.436;2023-04-05T06:02:09;96458.19;;;7.57;64.48
13604;BME280;24578;48.264;11.436;2023-04-05T06:05:31;96461.75;;;8.45;59.42
13604;BME280;24578;48.264;11.436;2023-04-05T06:08:52;96457.84;;;9.37;51.18
13604;BME280;24578;48.264;11.436;2023-04-05T06:12:14;96458.81;;;10.15;46.09
13604;BME280;24578;48.264;11.436;2023-04-05T06:15:36;96461.53;;;10.65;41.88
13604;BME280;24578;48.264;11.436;2023-04-05T06:18:58;96464.28;;;11.25;38.62
13604;BME280;24578;48.264;11.436;2023-04-05T06:22:20;96454.06;;;11.60;36.51
13604;BME280;24578;48.264;11.436;2023-04-05T06:25:44;96457.78;;;12.15;35.19
13604;BME280;24578;48.264;11.436;2023-04-05T06:29:06;96450.59;;;12.87;33.50
13604;BME280;24578;48.264;11.436;2023-04-05T06:32:28;96443.88;;;12.85;32.38
13604;BME280;24578;48.264;11.436;2023-04-05T06:35:49;96452.88;;;13.24;31.85
13604;BME280;24578;48.264;11.436;2023-04-05T06:39:11;96445.06;;;13.47;30.97
13604;BME280;24578;48.264;11.436;2023-04-05T06:42:35;96446.34;;;12.98;31.72
13604;BME280;24578;48.264;11.436;2023-04-05T06:45:57;96447.84;;;13.88;31.42
13604;BME280;24578;48.264;11.436;2023-04-05T06:49:19;96449.03;;;14.26;30.19
13604;BME280;24578;48.264;11.436;2023-04-05T06:52:41;96451.25;;;14.31;29.48
13604;BME280;24578;48.264;11.436;2023-04-05T06:56:03;96447.28;;;14.06;28.56
13604;BME280;24578;48.264;11.436;2023-04-05T06:59:27;96445.16;;;13.99;29.13
13604;BME280;24578;48.264;11.436;2023-04-05T07:02:50;96433.91;;;14.41;28.69
13604;BME280;24578;48.264;11.436;2023-04-05T07:06:12;96431.44;;;15.31;27.93
13604;BME280;24578;48.264;11.436;2023-04-05T07:09:34;96430.88;;;15.28;27.63
13604;BME280;24578;48.264;11.436;2023-04-05T07:12:57;96432.78;;;15.84;27.01
13604;BME280;24578;48.264;11.436;2023-04-05T07:16:19;96424.81;;;16.06;25.86
13604;BME280;24578;48.264;11.436;2023-04-05T07:19:43;96425.75;;;16.62;25.86
13604;BME280;24578;48.264;11.436;2023-04-05T07:23:05;96431.81;;;16.63;25.36
13604;BME280;24578;48.264;11.436;2023-04-05T07:26:27;96427.72;;;17.34;24.59
13604;BME280;24578;48.264;11.436;2023-04-05T07:29:49;96441.56;;;16.33;24.78
13604;BME280;24578;48.264;11.436;2023-04-05T07:33:11;96438.59;;;15.59;26.06
13604;BME280;24578;48.264;11.436;2023-04-05T07:36:33;96443.75;;;15.00;27.02
13604;BME280;24578;48.264;11.436;2023-04-05T07:39:55;96442.56;;;15.43;26.13
13604;BME280;24578;48.264;11.436;2023-04-05T07:43:18;96429.50;;;15.33;25.87
13604;BME280;24578;48.264;11.436;2023-04-05T07:46:40;96447.88;;;15.12;25.96
13604;BME280;24578;48.264;11.436;2023-04-05T07:50:06;96455.19;;;14.25;27.09
13604;BME280;24578;48.264;11.436;2023-04-05T07:53:30;96450.03;;;14.97;27.14
13604;BME280;24578;48.264;11.436;2023-04-05T07:56:52;96445.75;;;16.43;25.32
13604;BME280;24578;48.264;11.436;2023-04-05T08:00:16;96444.91;;;18.09;24.05
13604;BME280;24578;48.264;11.436;2023-04-05T08:03:38;96443.31;;;18.77;22.87
13604;BME280;24578;48.264;11.436;2023-04-05T08:07:00;96440.09;;;18.49;22.80
13604;BME280;24578;48.264;11.436;2023-04-05T08:10:21;96436.22;;;18.96;22.52
13604;BME280;24578;48.264;11.436;2023-04-05T08:13:43;96436.50;;;19.44;21.49
13604;BME280;24578;48.264;11.436;2023-04-05T08:17:05;96428.13;;;19.40;21.07
13604;BME280;24578;48.264;11.436;2023-04-05T08:20:27;96436.78;;;19.24;21.05
13604;BME280;24578;48.264;11.436;2023-04-05T08:23:49;96436.72;;;19.92;20.75
13604;BME280;24578;48.264;11.436;2023-04-05T08:27:11;96429.50;;;19.94;20.48
13604;BME280;24578;48.264;11.436;2023-04-05T08:30:33;96432.47;;;19.99;20.21
13604;BME280;24578;48.264;11.436;2023-04-05T08:33:54;96433.72;;;19.62;20.26
13604;BME280;24578;48.264;11.436;2023-04-05T08:37:16;96433.94;;;19.09;20.62
13604;BME280;24578;48.264;11.436;2023-04-05T08:40:43;96425.22;;;19.85;20.17
13604;BME280;24578;48.264;11.436;2023-04-05T08:44:09;96437.47;;;19.35;21.00
13604;BME280;24578;48.264;11.436;2023-04-05T08:47:34;96430.06;;;19.22;20.97
13604;BME280;24578;48.264;11.436;2023-04-05T08:50:56;96434.66;;;18.85;20.49
13604;BME280;24578;48.264;11.436;2023-04-05T08:54:18;96443.50;;;16.21;22.45
13604;BME280;24578;48.264;11.436;2023-04-05T08:57:43;96438.09;;;14.95;24.80
13604;BME280;24578;48.264;11.436;2023-04-05T09:01:09;96434.59;;;16.51;23.72
13604;BME280;24578;48.264;11.436;2023-04-05T09:04:34;96437.59;;;17.58;22.33
13604;BME280;24578;48.264;11.436;2023-04-05T09:08:00;96419.19;;;19.00;21.14
13604;BME280;24578;48.264;11.436;2023-04-05T09:11:24;96412.56;;;20.21;20.00
13604;BME280;24578;48.264;11.436;2023-04-05T09:14:47;96411.41;;;20.72;19.51
13604;BME280;24578;48.264;11.436;2023-04-05T09:18:10;96410.47;;;21.05;19.34
13604;BME280;24578;48.264;11.436;2023-04-05T09:22:04;96422.03;;;21.50;18.50
13604;BME280;24578;48.264;11.436;2023-04-05T09:25:38;96414.34;;;21.17;18.60
13604;BME280;24578;48.264;11.436;2023-04-05T09:29:00;96427.97;;;19.42;19.72
13604;BME280;24578;48.264;11.436;2023-04-05T09:32:24;96418.47;;;19.66;18.80
13604;BME280;24578;48.264;11.436;2023-04-05T09:35:49;96417.44;;;19.33;18.74
13604;BME280;24578;48.264;11.436;2023-04-05T09:39:11;96430.38;;;16.78;21.43
13604;BME280;24578;48.264;11.436;2023-04-05T09:42:44;96433.00;;;17.06;20.87
13604;BME280;24578;48.264;11.436;2023-04-05T09:46:35;96433.25;;;17.31;20.65
13604;BME280;24578;48.264;11.436;2023-04-05T09:50:01;96435.53;;;18.06;20.33
13604;BME280;24578;48.264;11.436;2023-04-05T09:53:26;96414.13;;;19.07;19.46
13604;BME280;24578;48.264;11.436;2023-04-05T09:56:54;96412.88;;;19.69;19.31
13604;BME280;24578;48.264;11.436;2023-04-05T10:00:20;96417.66;;;20.79;18.60
13604;BME280;24578;48.264;11.436;2023-04-05T10:03:46;96402.75;;;21.96;17.58
13604;BME280;24578;48.264;11.436;2023-04-05T10:07:09;96413.75;;;21.07;17.16
13604;BME280;24578;48.264;11.436;2023-04-05T10:10:45;96418.03;;;18.94;19.35
13604;BME280;24578;48.264;11.436;2023-04-05T10:14:07;96418.09;;;19.27;19.23
13604;BME280;24578;48.264;11.436;2023-04-05T10:17:45;96420.25;;;19.40;18.31
13604;BME280;24578;48.264;11.436;2023-04-05T10:21:10;96408.16;;;20.62;18.84
13604;BME280;24578;48.264;11.436;2023-04-05T10:24:48;96400.84;;;20.89;17.87
13604;BME280;24578;48.264;11.436;2023-04-05T10:28:20;96403.78;;;21.25;17.65
13604;BME280;24578;48.264;11.436;2023-04-05T10:31:54;96403.66;;;20.31;18.42
13604;BME280;24578;48.264;11.436;2023-04-05T10:35:27;96404.47;;;19.07;19.10
13604;BME280;24578;48.264;11.436;2023-04-05T10:39:03;96405.78;;;19.20;19.51
13604;BME280;24578;48.264;11.436;2023-04-05T10:42:45;96394.16;;;19.80;19.26
13604;BME280;24578;48.264;11.436;2023-04-05T10:46:10;96386.97;;;19.99;18.96
13604;BME280;24578;48.264;11.436;2023-04-05T10:49:45;96383.78;;;20.28;19.17
13604;BME280;24578;48.264;11.436;2023-04-05T10:53:11;96387.56;;;20.34;18.10
13604;BME280;24578;48.264;11.436;2023-04-05T10:56:33;96389.34;;;20.42;18.58
13604;BME280;24578;48.264;11.436;2023-04-05T10:59:58;96391.56;;;20.05;18.62
13604;BME280;24578;48.264;11.436;2023-04-05T11:10:36;96396.94;;;16.54;21.15
13604;BME280;24578;48.264;11.436;2023-04-05T11:13:58;96405.09;;;14.74;22.31
13604;BME280;24578;48.264;11.436;2023-04-05T11:17:25;96406.13;;;13.99;23.42
13604;BME280;24578;48.264;11.436;2023-04-05T11:20:53;96393.53;;;15.27;23.35
13604;BME280;24578;48.264;11.436;2023-04-05T11:24:50;96393.44;;;15.48;22.20
13604;BME280;24578;48.264;11.436;2023-04-05T11:28:40;96393.59;;;14.36;23.91
13604;BME280;24578;48.264;11.436;2023-04-05T11:32:11;96388.16;;;14.99;22.94
13604;BME280;24578;48.264;11.436;2023-04-05T11:35:33;96378.72;;;15.87;21.87
13604;BME280;24578;48.264;11.436;2023-04-05T11:39:30;96388.97;;;15.98;21.25
13604;BME280;24578;48.264;11.436;2023-04-05T11:46:20;96379.13;;;16.85;21.47
13604;BME280;24578;48.264;11.436;2023-04-05T11:49:52;96375.53;;;16.03;21.97
13604;BME280;24578;48.264;11.436;2023-04-05T11:53:15;96366.34;;;15.79;23.43
13604;BME280;24578;48.264;11.436;2023-04-05T11:56:37;96363.97;;;16.43;22.77
13604;BME280;24578;48.264;11.436;2023-04-05T11:59:59;96365.09;;;15.73;22.55
13604;BME280;24578;48.264;11.436;2023-04-05T12:03:20;96380.00;;;13.80;24.47
13604;BME280;24578;48.264;11.436;2023-04-05T12:06:42;96380.28;;;13.00;25.66
13604;BME280;24578;48.264;11.436;2023-04-05T12:10:07;96378.09;;;13.61;26.61
13604;BME280;24578;48.264;11.436;2023-04-05T12:13:33;96375.06;;;13.77;24.41
13604;BME280;24578;48.264;11.436;2023-04-05T12:16:59;96367.91;;;12.92;24.40
13604;BME280;24578;48.264;11.436;2023-04-05T12:20:23;96369.66;;;13.47;25.79
13604;BME280;24578;48.264;11.436;2023-04-05T12:23:45;96364.06;;;14.25;24.60
13604;BME280;24578;48.264;11.436;2023-04-05T12:27:07;96356.44;;;14.34;24.20
13604;BME280;24578;48.264;11.436;2023-04-05T12:30:29;96366.34;;;14.09;24.53
13604;BME280;24578;48.264;11.436;2023-04-05T12:33:58;96366.03;;;14.74;25.44
13604;BME280;24578;48.264;11.436;2023-04-05T12:37:20;96366.59;;;14.77;23.43
13604;BME280;24578;48.264;11.436;2023-04-05T12:40:42;96347.00;;;14.83;23.45
13604;BME280;24578;48.264;11.436;2023-04-05T12:44:27;96351.00;;;15.07;24.03
13604;BME280;24578;48.264;11.436;2023-04-05T12:47:58;96350.59;;;15.51;23.59
13604;BME280;24578;48.264;11.436;2023-04-05T12:51:23;96335.03;;;15.69;23.05
13604;BME280;24578;48.264;11.436;2023-04-05T12:54:52;96347.69;;;15.64;23.19
13604;BME280;24578;48.264;11.436;2023-04-05T12:58:14;96345.31;;;14.31;23.42
13604;BME280;24578;48.264;11.436;2023-04-05T13:01:39;96350.03;;;12.67;24.49
13604;BME280;24578;48.264;11.436;2023-04-05T13:05:00;96344.00;;;12.77;24.94
13604;BME280;24578;48.264;11.436;2023-04-05T13:08:22;96341.53;;;13.08;25.83
13604;BME280;24578;48.264;11.436;2023-04-05T13:11:44;96327.97;;;14.11;25.52
13604;BME280;24578;48.264;11.436;2023-04-05T13:15:06;96319.91;;;14.65;26.12
13604;BME280;24578;48.264;11.436;2023-04-05T13:18:28;96326.25;;;14.72;24.42
13604;BME280;24578;48.264;11.436;2023-04-05T13:21:50;96322.66;;;14.53;25.07
13604;BME280;24578;48.264;11.436;2023-04-05T13:25:13;96323.06;;;14.18;24.54
13604;BME280;24578;48.264;11.436;2023-04-05T13:28:35;96324.13;;;12.88;25.57
13604;BME280;24578;48.264;11.436;2023-04-05T13:31:57;96332.25;;;12.39;26.92
13604;BME280;24578;48.264;11.436;2023-04-05T13:35:18;96324.19;;;11.63;28.46
13604;BME280;24578;48.264;11.436;2023-04-05T13:38:40;96321.28;;;12.58;27.40
13604;BME280;24578;48.264;11.436;2023-04-05T13:42:03;96312.34;;;14.11;25.33
13604;BME280;24578;48.264;11.436;2023-04-05T13:45:24;96303.53;;;14.94;24.57
13604;BME280;24578;48.264;11.436;2023-04-05T13:48:46;96308.72;;;14.74;24.17
13604;BME280;24578;48.264;11.436;2023-04-05T13:52:08;96304.06;;;14.97;24.39
13604;BME280;24578;48.264;11.436;2023-04-05T13:55:30;96299.50;;;16.06;22.64
13604;BME280;24578;48.264;11.436;2023-04-05T13:58:52;96288.69;;;17.47;21.59
13604;BME280;24578;48.264;11.436;2023-04-05T14:02:14;96279.00;;;19.52;20.12
13604;BME280;24578;48.264;11.436;2023-04-05T14:05:37;96272.84;;;20.01;19.24
13604;BME280;24578;48.264;11.436;2023-04-05T14:08:59;96270.09;;;20.66;18.90
13604;BME280;24578;48.264;11.436;2023-04-05T14:12:21;96274.31;;;20.83;18.50
13604;BME280;24578;48.264;11.436;2023-04-05T14:15:43;96272.72;;;19.86;18.66
13604;BME280;24578;48.264;11.436;2023-04-05T14:19:04;96286.38;;;17.44;20.78
13604;BME280;24578;48.264;11.436;2023-04-05T14:22:26;96279.88;;;16.11;22.57
13604;BME280;24578;48.264;11.436;2023-04-05T14:25:48;96283.88;;;15.48;23.20
13604;BME280;24578;48.264;11.436;2023-04-05T14:29:10;96280.75;;;15.25;23.08
13604;BME280;24578;48.264;11.436;2023-04-05T14:32:32;96278.00;;;14.68;23.79
13604;BME280;24578;48.264;11.436;2023-04-05T14:35:53;96275.41;;;14.17;25.10
13604;BME280;24578;48.264;11.436;2023-04-05T14:39:15;96278.84;;;13.86;24.71
13604;BME280;24578;48.264;11.436;2023-04-05T14:42:37;96291.53;;;12.95;25.26
13604;BME280;24578;48.264;11.436;2023-04-05T14:45:59;96290.22;;;12.57;26.02
13604;BME280;24578;48.264;11.436;2023-04-05T14:49:21;96281.53;;;11.67;26.86
13604;BME280;24578;48.264;11.436;2023-04-05T14:52:42;96280.09;;;11.29;28.72
13604;BME280;24578;48.264;11.436;2023-04-05T14:56:06;96287.84;;;10.93;29.12
13604;BME280;24578;48.264;11.436;2023-04-05T14:59:30;96288.84;;;10.55;29.48
13604;BME280;24578;48.264;11.436;2023-04-05T15:02:52;96283.44;;;10.20;29.83
13604;BME280;24578;48.264;11.436;2023-04-05T15:06:14;96290.22;;;9.97;30.45
13604;BME280;24578;48.264;11.436;2023-04-05T15:09:36;96295.53;;;9.57;31.36
13604;BME280;24578;48.264;11.436;2023-04-05T15:12:58;96295.19;;;9.23;31.16
13604;BME280;24578;48.264;11.436;2023-04-05T15:16:20;96301.41;;;8.93;31.70
13604;BME280;24578;48.264;11.436;2023-04-05T15:19:43;96299.75;;;8.92;32.63
13604;BME280;24578;48.264;11.436;2023-04-05T15:23:05;96301.47;;;8.78;32.64
13604;BME280;24578;48.264;11.436;2023-04-05T15:26:27;96295.03;;;8.71;32.14
13604;BME280;24578;48.264;11.436;2023-04-05T15:29:48;96291.78;;;8.55;32.30
13604;BME280;24578;48.264;11.436;2023-04-05T15:33:10;96292.50;;;8.57;32.50
13604;BME280;24578;48.264;11.436;2023-04-05T15:36:32;96290.66;;;8.59;32.61
13604;BME280;24578;48.264;11.436;2023-04-05T15:39:54;96291.50;;;8.45;32.57
13604;BME280;24578;48.264;11.436;2023-04-05T15:43:16;96289.44;;;8.22;32.66
13604;BME280;24578;48.264;11.436;2023-04-05T15:46:38;96295.22;;;8.26;32.11
13604;BME280;24578;48.264;11.436;2023-04-05T15:50:00;96294.41;;;8.11;33.36
13604;BME280;24578;48.264;11.436;2023-04-05T15:53:22;96293.69;;;7.95;33.91
13604;BME280;24578;48.264;11.436;2023-04-05T15:56:44;96295.53;;;7.78;34.14
13604;BME280;24578;48.264;11.436;2023-04-05T16:00:07;96294.06;;;7.74;34.31
13604;BME280;24578;48.264;11.436;2023-04-05T16:03:30;96296.56;;;7.75;34.23
13604;BME280;24578;48.264;11.436;2023-04-05T16:06:53;96287.25;;;7.73;34.49
13604;BME280;24578;48.264;11.436;2023-04-05T16:10:15;96302.44;;;7.63;35.18
13604;BME280;24578;48.264;11.436;2023-04-05T16:13:37;96292.56;;;7.55;35.48
13604;BME280;24578;48.264;11.436;2023-04-05T16:16:58;96290.09;;;7.54;36.17
13604;BME280;24578;48.264;11.436;2023-04-05T16:20:20;96290.72;;;7.43;35.96
13604;BME280;24578;48.264;11.436;2023-04-05T16:23:44;96281.72;;;7.36;35.75
13604;BME280;24578;48.264;11.436;2023-04-05T16:27:07;96288.78;;;7.32;36.14
13604;BME280;24578;48.264;11.436;2023-04-05T16:30:29;96291.25;;;7.19;36.25
13604;BME280;24578;48.264;11.436;2023-04-05T16:33:51;96294.19;;;7.13;36.36
13604;BME280;24578;48.264;11.436;2023-04-05T16:37:14;96292.69;;;7.09;36.41
13604;BME280;24578;48.264;11.436;2023-04-05T16:40:35;96294.75;;;6.88;36.22
13604;BME280;24578;48.264;11.436;2023-04-05T16:43:57;96306.13;;;6.83;37.08
13604;BME280;24578;48.264;11.436;2023-04-05T16:47:19;96307.47;;;6.75;37.76
13604;BME280;24578;48.264;11.436;2023-04-05T16:50:41;96303.50;;;6.53;38.43
13604;BME280;24578;48.264;11.436;2023-04-05T16:54:03;96296.22;;;6.45;37.76
13604;BME280;24578;48.264;11.436;2023-04-05T16:57:24;96303.75;;;6.32;38.42
13604;BME280;24578;48.264;11.436;2023-04-05T17:00:46;96301.28;;;6.15;38.45
13604;BME280;24578;48.264;11.436;2023-04-05T17:04:08;96300.09;;;6.04;38.76
13604;BME280;24578;48.264;11.436;2023-04-05T17:07:30;96296.88;;;6.01;39.42
13604;BME280;24578;48.264;11.436;2023-04-05T17:10:52;96305.59;;;5.81;40.03
13604;BME280;24578;48.264;11.436;2023-04-05T17:14:13;96305.31;;;5.69;40.65
13604;BME280;24578;48.264;11.436;2023-04-05T17:17:35;96300.91;;;5.55;40.90
13604;BME280;24578;48.264;11.436;2023-04-05T17:20:57;96314.72;;;5.53;41.41
13604;BME280;24578;48.264;11.436;2023-04-05T17:24:19;96304.16;;;5.41;41.54
13604;BME280;24578;48.264;11.436;2023-04-05T17:27:40;96307.25;;;5.30;41.39
13604;BME280;24578;48.264;11.436;2023-04-05T17:31:02;96309.75;;;5.14;40.92
13604;BME280;24578;48.264;11.436;2023-04-05T17:34:24;96307.41;;;4.92;42.22
13604;BME280;24578;48.264;11.436;2023-04-05T17:37:46;96317.16;;;4.85;42.25
13604;BME280;24578;48.264;11.436;2023-04-05T17:41:08;96314.47;;;4.69;43.82
13604;BME280;24578;48.264;11.436;2023-04-05T17:44:30;96315.06;;;4.57;43.94
13604;BME280;24578;48.264;11.436;2023-04-05T17:47:53;96321.53;;;4.47;43.93
13604;BME280;24578;48.264;11.436;2023-04-05T17:51:14;96321.25;;;4.34;44.88
13604;BME280;24578;48.264;11.436;2023-04-05T17:54:37;96321.06;;;4.19;44.99
13604;BME280;24578;48.264;11.436;2023-04-05T17:57:59;96325.97;;;4.05;46.73
13604;BME280;24578;48.264;11.436;2023-04-05T18:01:21;96323.28;;;3.89;47.43